sensor_id;sensor_type;location;lat;lon;timestamp;temperature;humidity
67364;HTU21D;54250;45.572;38.086;2023-01-05T00:00:03;1.73;90.77
67364;HTU21D;54250;45.572;38.086;2023-01-05T00:02:38;1.75;90.81
67364;HTU21D;54250;45.572;38.086;2023-01-05T00:05:04;1.78;90.80
67364;HTU21D;54250;45.572;38.086;2023-01-05T00:07:30;1.81;90.77
67364;HTU21D;54250;45.572;38.086;2023-01-05T00:09:56;1.82;90.79
67364;HTU21D;54250;45.572;38.086;2023-01-05T00:12:22;1.82;90.84
67364;HTU21D;54250;45.572;38.086;2023-01-05T00:15:08;1.78;90.88
67364;HTU21D;54250;45.572;38.086;2023-01-05T00:17:53;1.70;91.00
67364;HTU21D;54250;45.572;38.086;2023-01-05T00:20:38;1.62;91.21
67364;HTU21D;54250;45.572;38.086;2023-01-05T00:23:22;1.54;91.43
67364;HTU21D;54250;45.572;38.086;2023-01-05T00:25:48;1.52;91.56
67364;HTU21D;54250;45.572;38.086;2023-01-05T00:28:14;1.50;91.62
67364;HTU21D;54250;45.572;38.086;2023-01-05T00:30:45;1.52;91.58
67364;HTU21D;54250;45.572;38.086;2023-01-05T00:33:14;1.52;91.53
67364;HTU21D;54250;45.572;38.086;2023-01-05T00:35:40;1.49;91.53
67364;HTU21D;54250;45.572;38.086;2023-01-05T00:38:07;1.49;91.58
67364;HTU21D;54250;45.572;38.086;2023-01-05T00:40:34;1.50;91.53
67364;HTU21D;54250;45.572;38.086;2023-01-05T00:43:00;1.50;91.53
67364;HTU21D;54250;45.572;38.086;2023-01-05T00:45:26;1.54;91.51
67364;HTU21D;54250;45.572;38.086;2023-01-05T00:47:53;1.56;91.40
67364;HTU21D;54250;45.572;38.086;2023-01-05T00:50:21;1.63;91.31
67364;HTU21D;54250;45.572;38.086;2023-01-05T00:52:48;1.66;91.24
67364;HTU21D;54250;45.572;38.086;2023-01-05T00:55:14;1.68;91.21
67364;HTU21D;54250;45.572;38.086;2023-01-05T00:57:40;1.71;91.18
67364;HTU21D;54250;45.572;38.086;2023-01-05T01:00:12;1.76;91.12
67364;HTU21D;54250;45.572;38.086;2023-01-05T01:02:39;1.77;91.13
67364;HTU21D;54250;45.572;38.086;2023-01-05T01:05:05;1.81;91.06
67364;HTU21D;54250;45.572;38.086;2023-01-05T01:07:32;1.80;91.05
67364;HTU21D;54250;45.572;38.086;2023-01-05T01:09:58;1.83;91.06
67364;HTU21D;54250;45.572;38.086;2023-01-05T01:12:24;1.88;91.04
67364;HTU21D;54250;45.572;38.086;2023-01-05T01:14:50;1.92;90.98
67364;HTU21D;54250;45.572;38.086;2023-01-05T01:17:16;1.92;90.97
67364;HTU21D;54250;45.572;38.086;2023-01-05T01:19:43;1.94;90.97
67364;HTU21D;54250;45.572;38.086;2023-01-05T01:22:11;1.97;90.97
67364;HTU21D;54250;45.572;38.086;2023-01-05T01:24:38;1.98;90.96
67364;HTU21D;54250;45.572;38.086;2023-01-05T01:27:04;2.00;91.00
67364;HTU21D;54250;45.572;38.086;2023-01-05T01:29:30;2.03;91.05
67364;HTU21D;54250;45.572;38.086;2023-01-05T01:31:56;1.99;91.15
67364;HTU21D;54250;45.572;38.086;2023-01-05T01:34:22;1.96;91.22
67364;HTU21D;54250;45.572;38.086;2023-01-05T01:36:49;2.00;91.22
67364;HTU21D;54250;45.572;38.086;2023-01-05T01:39:19;2.01;91.18
67364;HTU21D;54250;45.572;38.086;2023-01-05T01:41:51;2.01;91.15
67364;HTU21D;54250;45.572;38.086;2023-01-05T01:49:52;1.90;91.45
67364;HTU21D;54250;45.572;38.086;2023-01-05T01:52:20;1.87;91.52
67364;HTU21D;54250;45.572;38.086;2023-01-05T01:54:48;1.83;91.58
67364;HTU21D;54250;45.572;38.086;2023-01-05T01:57:15;1.80;91.64
67364;HTU21D;54250;45.572;38.086;2023-01-05T01:59:42;1.81;91.62
67364;HTU21D;54250;45.572;38.086;2023-01-05T02:02:08;1.79;91.60
67364;HTU21D;54250;45.572;38.086;2023-01-05T02:04:36;1.79;91.59
67364;HTU21D;54250;45.572;38.086;2023-01-05T02:07:04;1.71;91.59
67364;HTU21D;54250;45.572;38.086;2023-01-05T02:09:31;1.62;91.75
67364;HTU21D;54250;45.572;38.086;2023-01-05T02:12:06;1.50;91.85
67364;HTU21D;54250;45.572;38.086;2023-01-05T02:21:06;1.28;92.14
67364;HTU21D;54250;45.572;38.086;2023-01-05T02:31:50;1.26;91.86
67364;HTU21D;54250;45.572;38.086;2023-01-05T02:34:20;1.27;91.86
67364;HTU21D;54250;45.572;38.086;2023-01-05T02:39:58;1.29;91.51
67364;HTU21D;54250;45.572;38.086;2023-01-05T02:42:28;1.33;91.59
67364;HTU21D;54250;45.572;38.086;2023-01-05T02:45:01;1.31;91.50
67364;HTU21D;54250;45.572;38.086;2023-01-05T02:50:28;1.25;91.35
67364;HTU21D;54250;45.572;38.086;2023-01-05T02:55:48;1.27;91.47
67364;HTU21D;54250;45.572;38.086;2023-01-05T02:58:20;1.31;91.41
67364;HTU21D;54250;45.572;38.086;2023-01-05T03:01:00;1.28;91.29
67364;HTU21D;54250;45.572;38.086;2023-01-05T03:03:49;1.23;91.34
67364;HTU21D;54250;45.572;38.086;2023-01-05T03:06:32;1.20;91.56
67364;HTU21D;54250;45.572;38.086;2023-01-05T03:09:01;1.16;91.60
67364;HTU21D;54250;45.572;38.086;2023-01-05T03:11:52;1.09;91.54
67364;HTU21D;54250;45.572;38.086;2023-01-05T03:14:46;0.96;91.85
67364;HTU21D;54250;45.572;38.086;2023-01-05T03:17:17;0.90;91.96
67364;HTU21D;54250;45.572;38.086;2023-01-05T03:19:47;0.63;92.14
67364;HTU21D;54250;45.572;38.086;2023-01-05T03:22:17;0.60;92.37
67364;HTU21D;54250;45.572;38.086;2023-01-05T03:25:05;0.47;92.55
67364;HTU21D;54250;45.572;38.086;2023-01-05T03:27:53;0.37;92.72
67364;HTU21D;54250;45.572;38.086;2023-01-05T03:31:42;0.32;92.40
67364;HTU21D;54250;45.572;38.086;2023-01-05T03:34:11;0.34;92.49
67364;HTU21D;54250;45.572;38.086;2023-01-05T03:37:15;0.34;92.11
67364;HTU21D;54250;45.572;38.086;2023-01-05T03:39:44;0.37;92.03
67364;HTU21D;54250;45.572;38.086;2023-01-05T03:42:11;0.38;91.85
67364;HTU21D;54250;45.572;38.086;2023-01-05T03:44:39;0.35;91.66
67364;HTU21D;54250;45.572;38.086;2023-01-05T03:47:10;0.23;91.73
67364;HTU21D;54250;45.572;38.086;2023-01-05T03:49:36;0.13;91.95
67364;HTU21D;54250;45.572;38.086;2023-01-05T03:52:03;0.04;92.09
67364;HTU21D;54250;45.572;38.086;2023-01-05T03:54:30;0.02;92.11
67364;HTU21D;54250;45.572;38.086;2023-01-05T03:56:56;-0.02;92.04
67364;HTU21D;54250;45.572;38.086;2023-01-05T03:59:22;-0.08;91.98
67364;HTU21D;54250;45.572;38.086;2023-01-05T04:01:49;-0.15;92.01
67364;HTU21D;54250;45.572;38.086;2023-01-05T04:04:16;-0.21;91.93
67364;HTU21D;54250;45.572;38.086;2023-01-05T04:06:43;-0.34;92.00
67364;HTU21D;54250;45.572;38.086;2023-01-05T04:09:10;-0.38;92.01
67364;HTU21D;54250;45.572;38.086;2023-01-05T04:11:38;-0.44;91.93
67364;HTU21D;54250;45.572;38.086;2023-01-05T04:14:06;-0.53;91.81
67364;HTU21D;54250;45.572;38.086;2023-01-05T04:16:34;-0.59;91.95
67364;HTU21D;54250;45.572;38.086;2023-01-05T04:19:08;-0.70;91.89
67364;HTU21D;54250;45.572;38.086;2023-01-05T04:21:35;-0.64;91.82
67364;HTU21D;54250;45.572;38.086;2023-01-05T04:24:02;-0.60;91.67
67364;HTU21D;54250;45.572;38.086;2023-01-05T04:26:28;-0.61;91.55
67364;HTU21D;54250;45.572;38.086;2023-01-05T04:28:55;-0.64;91.55
67364;HTU21D;54250;45.572;38.086;2023-01-05T04:31:24;-0.66;91.44
67364;HTU21D;54250;45.572;38.086;2023-01-05T04:33:52;-0.69;91.50
67364;HTU21D;54250;45.572;38.086;2023-01-05T04:36:21;-0.66;91.43
67364;HTU21D;54250;45.572;38.086;2023-01-05T04:38:47;-0.64;91.27
67364;HTU21D;54250;45.572;38.086;2023-01-05T04:41:14;-0.64;91.34
67364;HTU21D;54250;45.572;38.086;2023-01-05T04:43:45;-0.61;91.15
67364;HTU21D;54250;45.572;38.086;2023-01-05T04:46:12;-0.65;91.10
67364;HTU21D;54250;45.572;38.086;2023-01-05T04:48:41;-0.66;91.19
67364;HTU21D;54250;45.572;38.086;2023-01-05T04:51:07;-0.62;91.15
67364;HTU21D;54250;45.572;38.086;2023-01-05T04:53:36;-0.61;91.13
67364;HTU21D;54250;45.572;38.086;2023-01-05T04:56:04;-0.58;91.09
67364;HTU21D;54250;45.572;38.086;2023-01-05T04:58:37;-0.51;91.08
67364;HTU21D;54250;45.572;38.086;2023-01-05T05:01:04;-0.42;90.96
67364;HTU21D;54250;45.572;38.086;2023-01-05T05:03:33;-0.34;90.89
67364;HTU21D;54250;45.572;38.086;2023-01-05T05:06:03;-0.21;90.84
67364;HTU21D;54250;45.572;38.086;2023-01-05T05:08:31;-0.00;90.72
67364;HTU21D;54250;45.572;38.086;2023-01-05T05:10:59;0.21;90.44
67364;HTU21D;54250;45.572;38.086;2023-01-05T05:13:27;0.33;90.34
67364;HTU21D;54250;45.572;38.086;2023-01-05T05:15:54;0.46;90.37
67364;HTU21D;54250;45.572;38.086;2023-01-05T05:18:20;0.61;90.37
67364;HTU21D;54250;45.572;38.086;2023-01-05T05:20:50;0.68;90.34
67364;HTU21D;54250;45.572;38.086;2023-01-05T05:23:18;0.74;90.48
67364;HTU21D;54250;45.572;38.086;2023-01-05T05:25:52;0.79;90.55
67364;HTU21D;54250;45.572;38.086;2023-01-05T05:28:21;0.98;90.67
67364;HTU21D;54250;45.572;38.086;2023-01-05T05:30:56;1.23;90.13
67364;HTU21D;54250;45.572;38.086;2023-01-05T05:33:23;1.24;90.07
67364;HTU21D;54250;45.572;38.086;2023-01-05T05:35:49;1.27;90.21
67364;HTU21D;54250;45.572;38.086;2023-01-05T05:38:15;1.33;90.22
67364;HTU21D;54250;45.572;38.086;2023-01-05T05:40:41;1.42;90.21
67364;HTU21D;54250;45.572;38.086;2023-01-05T05:43:07;1.56;90.01
67364;HTU21D;54250;45.572;38.086;2023-01-05T05:45:33;1.75;89.82
67364;HTU21D;54250;45.572;38.086;2023-01-05T05:47:59;1.97;89.50
67364;HTU21D;54250;45.572;38.086;2023-01-05T05:50:26;2.19;89.12
67364;HTU21D;54250;45.572;38.086;2023-01-05T05:52:52;2.43;88.93
67364;HTU21D;54250;45.572;38.086;2023-01-05T05:55:18;2.74;88.40
67364;HTU21D;54250;45.572;38.086;2023-01-05T05:57:44;2.96;88.06
67364;HTU21D;54250;45.572;38.086;2023-01-05T06:00:11;3.14;88.09
67364;HTU21D;54250;45.572;38.086;2023-01-05T06:02:40;3.23;87.99
67364;HTU21D;54250;45.572;38.086;2023-01-05T06:05:07;3.11;88.30
67364;HTU21D;54250;45.572;38.086;2023-01-05T06:07:33;2.97;88.86
67364;HTU21D;54250;45.572;38.086;2023-01-05T06:09:59;2.89;89.28
67364;HTU21D;54250;45.572;38.086;2023-01-05T06:12:25;2.85;89.38
67364;HTU21D;54250;45.572;38.086;2023-01-05T06:14:51;2.89;89.47
67364;HTU21D;54250;45.572;38.086;2023-01-05T06:17:17;2.93;89.16
67364;HTU21D;54250;45.572;38.086;2023-01-05T06:19:43;2.93;89.12
67364;HTU21D;54250;45.572;38.086;2023-01-05T06:22:09;2.91;89.12
67364;HTU21D;54250;45.572;38.086;2023-01-05T06:24:35;2.96;89.05
67364;HTU21D;54250;45.572;38.086;2023-01-05T06:27:01;3.00;88.93
67364;HTU21D;54250;45.572;38.086;2023-01-05T06:29:27;3.09;88.68
67364;HTU21D;54250;45.572;38.086;2023-01-05T06:31:53;3.24;88.51
67364;HTU21D;54250;45.572;38.086;2023-01-05T06:34:19;3.32;88.17
67364;HTU21D;54250;45.572;38.086;2023-01-05T06:36:46;3.35;88.08
67364;HTU21D;54250;45.572;38.086;2023-01-05T06:39:12;3.46;88.02
67364;HTU21D;54250;45.572;38.086;2023-01-05T06:41:38;3.62;87.79
67364;HTU21D;54250;45.572;38.086;2023-01-05T06:44:04;3.93;87.26
67364;HTU21D;54250;45.572;38.086;2023-01-05T06:46:31;3.95;86.89
67364;HTU21D;54250;45.572;38.086;2023-01-05T06:48:57;3.88;87.15
67364;HTU21D;54250;45.572;38.086;2023-01-05T06:51:23;3.84;87.35
67364;HTU21D;54250;45.572;38.086;2023-01-05T06:53:49;3.84;87.50
67364;HTU21D;54250;45.572;38.086;2023-01-05T06:56:15;3.91;87.38
67364;HTU21D;54250;45.572;38.086;2023-01-05T06:58:41;4.00;87.35
67364;HTU21D;54250;45.572;38.086;2023-01-05T07:01:07;4.14;87.11
67364;HTU21D;54250;45.572;38.086;2023-01-05T07:03:33;4.19;86.96
67364;HTU21D;54250;45.572;38.086;2023-01-05T07:05:59;4.20;87.01
67364;HTU21D;54250;45.572;38.086;2023-01-05T07:08:25;4.27;86.85
67364;HTU21D;54250;45.572;38.086;2023-01-05T07:10:52;4.44;86.77
67364;HTU21D;54250;45.572;38.086;2023-01-05T07:13:18;5.06;86.19
67364;HTU21D;54250;45.572;38.086;2023-01-05T07:15:44;5.63;84.14
67364;HTU21D;54250;45.572;38.086;2023-01-05T07:18:10;5.74;84.06
67364;HTU21D;54250;45.572;38.086;2023-01-05T07:20:36;5.87;84.22
67364;HTU21D;54250;45.572;38.086;2023-01-05T07:23:03;6.00;84.23
67364;HTU21D;54250;45.572;38.086;2023-01-05T07:25:29;6.24;84.33
67364;HTU21D;54250;45.572;38.086;2023-01-05T07:27:57;6.89;83.03
67364;HTU21D;54250;45.572;38.086;2023-01-05T07:30:23;6.76;82.92
67364;HTU21D;54250;45.572;38.086;2023-01-05T07:32:50;6.48;83.98
67364;HTU21D;54250;45.572;38.086;2023-01-05T07:35:16;6.44;84.55
67364;HTU21D;54250;45.572;38.086;2023-01-05T07:37:42;6.56;84.72
67364;HTU21D;54250;45.572;38.086;2023-01-05T07:40:09;6.67;84.26
67364;HTU21D;54250;45.572;38.086;2023-01-05T07:42:36;6.74;84.09
67364;HTU21D;54250;45.572;38.086;2023-01-05T07:45:03;6.98;83.49
67364;HTU21D;54250;45.572;38.086;2023-01-05T07:47:30;7.20;82.80
67364;HTU21D;54250;45.572;38.086;2023-01-05T07:49:57;7.09;82.85
67364;HTU21D;54250;45.572;38.086;2023-01-05T07:52:23;7.00;83.52
67364;HTU21D;54250;45.572;38.086;2023-01-05T07:54:50;7.72;82.39
67364;HTU21D;54250;45.572;38.086;2023-01-05T07:57:17;8.58;80.48
67364;HTU21D;54250;45.572;38.086;2023-01-05T07:59:43;9.34;78.63
67364;HTU21D;54250;45.572;38.086;2023-01-05T08:02:09;10.92;76.38
67364;HTU21D;54250;45.572;38.086;2023-01-05T08:04:37;12.34;73.70
67364;HTU21D;54250;45.572;38.086;2023-01-05T08:07:05;13.10;72.70
67364;HTU21D;54250;45.572;38.086;2023-01-05T08:09:37;12.75;73.28
67364;HTU21D;54250;45.572;38.086;2023-01-05T08:12:23;11.33;75.83
67364;HTU21D;54250;45.572;38.086;2023-01-05T08:14:49;10.04;78.23
67364;HTU21D;54250;45.572;38.086;2023-01-05T08:17:17;9.08;80.11
67364;HTU21D;54250;45.572;38.086;2023-01-05T08:19:46;8.42;80.65
67364;HTU21D;54250;45.572;38.086;2023-01-05T08:22:13;8.05;80.96
67364;HTU21D;54250;45.572;38.086;2023-01-05T08:24:39;8.03;80.85
67364;HTU21D;54250;45.572;38.086;2023-01-05T08:27:06;8.07;80.47
67364;HTU21D;54250;45.572;38.086;2023-01-05T08:29:33;8.55;79.66
67364;HTU21D;54250;45.572;38.086;2023-01-05T08:31:59;8.80;78.85
67364;HTU21D;54250;45.572;38.086;2023-01-05T08:34:27;8.70;78.62
67364;HTU21D;54250;45.572;38.086;2023-01-05T08:36:56;8.55;79.23
67364;HTU21D;54250;45.572;38.086;2023-01-05T08:39:33;8.79;78.58
67364;HTU21D;54250;45.572;38.086;2023-01-05T08:42:00;8.74;78.00
67364;HTU21D;54250;45.572;38.086;2023-01-05T08:44:29;8.79;77.85
67364;HTU21D;54250;45.572;38.086;2023-01-05T08:47:01;9.53;76.72
67364;HTU21D;54250;45.572;38.086;2023-01-05T08:49:31;10.28;75.52
67364;HTU21D;54250;45.572;38.086;2023-01-05T08:51:57;10.86;74.43
67364;HTU21D;54250;45.572;38.086;2023-01-05T08:54:23;11.14;73.41
67364;HTU21D;54250;45.572;38.086;2023-01-05T08:56:50;11.24;73.48
67364;HTU21D;54250;45.572;38.086;2023-01-05T08:59:18;11.37;73.69
67364;HTU21D;54250;45.572;38.086;2023-01-05T09:01:46;11.73;72.80
67364;HTU21D;54250;45.572;38.086;2023-01-05T09:04:22;11.91;72.58
67364;HTU21D;54250;45.572;38.086;2023-01-05T09:06:59;11.75;73.53
67364;HTU21D;54250;45.572;38.086;2023-01-05T09:09:26;11.39;74.00
67364;HTU21D;54250;45.572;38.086;2023-01-05T09:11:52;11.03;73.97
67364;HTU21D;54250;45.572;38.086;2023-01-05T09:14:19;10.66;74.47
67364;HTU21D;54250;45.572;38.086;2023-01-05T09:16:45;10.39;74.80
67364;HTU21D;54250;45.572;38.086;2023-01-05T09:19:11;10.18;74.23
67364;HTU21D;54250;45.572;38.086;2023-01-05T09:21:37;9.84;74.76
67364;HTU21D;54250;45.572;38.086;2023-01-05T09:24:15;9.38;74.86
67364;HTU21D;54250;45.572;38.086;2023-01-05T09:26:44;9.12;74.98
67364;HTU21D;54250;45.572;38.086;2023-01-05T09:29:11;9.12;75.01
67364;HTU21D;54250;45.572;38.086;2023-01-05T09:31:39;9.49;74.36
67364;HTU21D;54250;45.572;38.086;2023-01-05T09:34:09;9.89;73.80
67364;HTU21D;54250;45.572;38.086;2023-01-05T09:36:37;10.00;73.49
67364;HTU21D;54250;45.572;38.086;2023-01-05T09:39:04;10.15;73.54
67364;HTU21D;54250;45.572;38.086;2023-01-05T09:41:48;10.48;73.11
67364;HTU21D;54250;45.572;38.086;2023-01-05T09:44:35;10.57;73.10
67364;HTU21D;54250;45.572;38.086;2023-01-05T09:49:40;10.98;72.64
67364;HTU21D;54250;45.572;38.086;2023-01-05T09:52:09;11.36;71.76
67364;HTU21D;54250;45.572;38.086;2023-01-05T09:54:36;12.17;70.76
67364;HTU21D;54250;45.572;38.086;2023-01-05T09:57:11;12.92;69.01
67364;HTU21D;54250;45.572;38.086;2023-01-05T09:59:45;13.03;68.74
67364;HTU21D;54250;45.572;38.086;2023-01-05T10:02:34;12.21;70.01
67364;HTU21D;54250;45.572;38.086;2023-01-05T10:05:11;11.64;71.03
67364;HTU21D;54250;45.572;38.086;2023-01-05T10:10:35;11.33;71.95
67364;HTU21D;54250;45.572;38.086;2023-01-05T10:13:26;11.60;71.73
67364;HTU21D;54250;45.572;38.086;2023-01-05T10:16:27;11.70;71.00
67364;HTU21D;54250;45.572;38.086;2023-01-05T10:18:57;11.41;71.17
67364;HTU21D;54250;45.572;38.086;2023-01-05T10:21:42;11.19;71.85
67364;HTU21D;54250;45.572;38.086;2023-01-05T10:30:50;10.66;73.25
67364;HTU21D;54250;45.572;38.086;2023-01-05T10:40:23;10.49;73.70
67364;HTU21D;54250;45.572;38.086;2023-01-05T10:42:43;10.46;74.08
67364;HTU21D;54250;45.572;38.086;2023-01-05T10:45:58;10.45;73.86
67364;HTU21D;54250;45.572;38.086;2023-01-05T10:48:44;10.30;73.83
67364;HTU21D;54250;45.572;38.086;2023-01-05T10:51:19;10.16;74.25
67364;HTU21D;54250;45.572;38.086;2023-01-05T10:53:46;10.04;74.37
67364;HTU21D;54250;45.572;38.086;2023-01-05T10:56:24;9.94;74.57
67364;HTU21D;54250;45.572;38.086;2023-01-05T10:59:15;9.85;74.76
67364;HTU21D;54250;45.572;38.086;2023-01-05T11:02:14;9.77;75.04
67364;HTU21D;54250;45.572;38.086;2023-01-05T11:04:53;9.70;75.23
67364;HTU21D;54250;45.572;38.086;2023-01-05T11:08:01;9.64;75.34
67364;HTU21D;54250;45.572;38.086;2023-01-05T11:10:47;9.62;75.47
67364;HTU21D;54250;45.572;38.086;2023-01-05T11:13:32;9.61;75.56
67364;HTU21D;54250;45.572;38.086;2023-01-05T11:16:11;9.60;75.70
67364;HTU21D;54250;45.572;38.086;2023-01-05T11:19:01;9.57;75.86
67364;HTU21D;54250;45.572;38.086;2023-01-05T11:21:40;9.54;75.88
67364;HTU21D;54250;45.572;38.086;2023-01-05T11:29:19;9.55;76.28
67364;HTU21D;54250;45.572;38.086;2023-01-05T11:37:03;9.49;76.76
67364;HTU21D;54250;45.572;38.086;2023-01-05T11:42:28;9.45;76.99
67364;HTU21D;54250;45.572;38.086;2023-01-05T11:44:58;9.45;77.09
67364;HTU21D;54250;45.572;38.086;2023-01-05T11:52:38;9.50;77.28
67364;HTU21D;54250;45.572;38.086;2023-01-05T11:57:52;9.45;77.49
67364;HTU21D;54250;45.572;38.086;2023-01-05T12:00:31;9.39;77.60
67364;HTU21D;54250;45.572;38.086;2023-01-05T12:05:49;9.30;77.89
67364;HTU21D;54250;45.572;38.086;2023-01-05T12:08:23;9.29;77.98
67364;HTU21D;54250;45.572;38.086;2023-01-05T12:16:59;9.24;78.15
67364;HTU21D;54250;45.572;38.086;2023-01-05T12:19:51;9.22;78.22
67364;HTU21D;54250;45.572;38.086;2023-01-05T12:22:24;9.22;78.31
67364;HTU21D;54250;45.572;38.086;2023-01-05T12:31:02;9.23;78.36
67364;HTU21D;54250;45.572;38.086;2023-01-05T12:34:02;9.25;78.46
67364;HTU21D;54250;45.572;38.086;2023-01-05T12:48:07;9.17;78.64
67364;HTU21D;54250;45.572;38.086;2023-01-05T12:50:41;9.17;78.66
67364;HTU21D;54250;45.572;38.086;2023-01-05T12:53:28;9.12;78.72
67364;HTU21D;54250;45.572;38.086;2023-01-05T12:56:00;9.07;78.87
67364;HTU21D;54250;45.572;38.086;2023-01-05T12:58:38;9.02;78.95
67364;HTU21D;54250;45.572;38.086;2023-01-05T13:01:07;8.94;79.17
67364;HTU21D;54250;45.572;38.086;2023-01-05T13:03:46;8.88;79.24
67364;HTU21D;54250;45.572;38.086;2023-01-05T13:06:16;8.80;79.45
67364;HTU21D;54250;45.572;38.086;2023-01-05T13:08:49;8.72;79.56
67364;HTU21D;54250;45.572;38.086;2023-01-05T13:11:30;8.62;79.72
67364;HTU21D;54250;45.572;38.086;2023-01-05T13:16:38;8.53;79.85
67364;HTU21D;54250;45.572;38.086;2023-01-05T13:21:51;8.42;80.05
67364;HTU21D;54250;45.572;38.086;2023-01-05T13:24:28;8.36;80.14
67364;HTU21D;54250;45.572;38.086;2023-01-05T13:26:56;8.30;80.20
67364;HTU21D;54250;45.572;38.086;2023-01-05T13:29:27;8.24;80.33
67364;HTU21D;54250;45.572;38.086;2023-01-05T13:40:24;8.12;80.50
67364;HTU21D;54250;45.572;38.086;2023-01-05T13:43:17;8.06;80.61
67364;HTU21D;54250;45.572;38.086;2023-01-05T13:46:17;8.04;80.65
67364;HTU21D;54250;45.572;38.086;2023-01-05T13:51:59;8.06;80.66
67364;HTU21D;54250;45.572;38.086;2023-01-05T13:57:22;8.07;80.71
67364;HTU21D;54250;45.572;38.086;2023-01-05T14:05:55;8.16;80.73
67364;HTU21D;54250;45.572;38.086;2023-01-05T14:08:37;8.17;80.77
67364;HTU21D;54250;45.572;38.086;2023-01-05T14:11:15;8.17;80.85
67364;HTU21D;54250;45.572;38.086;2023-01-05T14:14:02;8.17;80.89
67364;HTU21D;54250;45.572;38.086;2023-01-05T14:27:08;8.13;81.21
67364;HTU21D;54250;45.572;38.086;2023-01-05T14:34:54;8.04;81.52
67364;HTU21D;54250;45.572;38.086;2023-01-05T14:37:41;8.02;81.61
67364;HTU21D;54250;45.572;38.086;2023-01-05T14:41:01;8.04;81.55
67364;HTU21D;54250;45.572;38.086;2023-01-05T14:43:41;8.07;81.58
67364;HTU21D;54250;45.572;38.086;2023-01-05T14:46:13;8.07;81.62
67364;HTU21D;54250;45.572;38.086;2023-01-05T14:48:57;8.08;81.72
67364;HTU21D;54250;45.572;38.086;2023-01-05T14:51:27;8.08;81.75
67364;HTU21D;54250;45.572;38.086;2023-01-05T14:53:59;8.07;81.75
67364;HTU21D;54250;45.572;38.086;2023-01-05T14:56:35;8.05;81.76
67364;HTU21D;54250;45.572;38.086;2023-01-05T14:59:24;8.02;81.82
67364;HTU21D;54250;45.572;38.086;2023-01-05T15:02:16;7.98;81.98
67364;HTU21D;54250;45.572;38.086;2023-01-05T15:04:53;7.96;82.09
67364;HTU21D;54250;45.572;38.086;2023-01-05T15:24:22;7.54;82.88
67364;HTU21D;54250;45.572;38.086;2023-01-05T15:27:09;7.52;83.00
67364;HTU21D;54250;45.572;38.086;2023-01-05T15:32:31;7.47;83.20
67364;HTU21D;54250;45.572;38.086;2023-01-05T15:35:28;7.45;83.24
67364;HTU21D;54250;45.572;38.086;2023-01-05T15:38:15;7.45;83.33
67364;HTU21D;54250;45.572;38.086;2023-01-05T15:40:43;7.47;83.52
67364;HTU21D;54250;45.572;38.086;2023-01-05T15:43:14;7.47;83.47
67364;HTU21D;54250;45.572;38.086;2023-01-05T15:45:41;7.44;83.49
67364;HTU21D;54250;45.572;38.086;2023-01-05T15:48:26;7.44;83.52
67364;HTU21D;54250;45.572;38.086;2023-01-05T15:50:56;7.44;83.73
67364;HTU21D;54250;45.572;38.086;2023-01-05T15:53:29;7.46;83.75
67364;HTU21D;54250;45.572;38.086;2023-01-05T15:56:01;7.45;83.84
67364;HTU21D;54250;45.572;38.086;2023-01-05T15:58:30;7.44;83.72
67364;HTU21D;54250;45.572;38.086;2023-01-05T16:01:12;7.46;83.72
67364;HTU21D;54250;45.572;38.086;2023-01-05T16:03:41;7.49;83.84
67364;HTU21D;54250;45.572;38.086;2023-01-05T16:08:49;7.54;83.87
67364;HTU21D;54250;45.572;38.086;2023-01-05T16:11:32;7.50;83.81
67364;HTU21D;54250;45.572;38.086;2023-01-05T16:14:09;7.49;83.97
67364;HTU21D;54250;45.572;38.086;2023-01-05T16:17:15;7.49;83.94
67364;HTU21D;54250;45.572;38.086;2023-01-05T16:19:40;7.44;83.90
67364;HTU21D;54250;45.572;38.086;2023-01-05T16:22:45;7.45;83.90
67364;HTU21D;54250;45.572;38.086;2023-01-05T16:25:50;7.43;83.95
67364;HTU21D;54250;45.572;38.086;2023-01-05T16:28:20;7.48;84.02
67364;HTU21D;54250;45.572;38.086;2023-01-05T16:30:48;7.50;83.98
67364;HTU21D;54250;45.572;38.086;2023-01-05T16:33:34;7.52;83.97
67364;HTU21D;54250;45.572;38.086;2023-01-05T16:36:11;7.58;83.81
67364;HTU21D;54250;45.572;38.086;2023-01-05T16:38:44;7.65;83.74
67364;HTU21D;54250;45.572;38.086;2023-01-05T16:41:23;7.67;83.64
67364;HTU21D;54250;45.572;38.086;2023-01-05T16:44:02;7.68;83.67
67364;HTU21D;54250;45.572;38.086;2023-01-05T16:46:37;7.72;83.59
67364;HTU21D;54250;45.572;38.086;2023-01-05T16:51:56;7.81;83.45
67364;HTU21D;54250;45.572;38.086;2023-01-05T16:54:36;7.85;83.28
67364;HTU21D;54250;45.572;38.086;2023-01-05T16:57:30;7.85;83.34
67364;HTU21D;54250;45.572;38.086;2023-01-05T17:00:00;7.82;83.42
67364;HTU21D;54250;45.572;38.086;2023-01-05T17:02:47;7.70;83.58
67364;HTU21D;54250;45.572;38.086;2023-01-05T17:05:28;7.63;83.82
67364;HTU21D;54250;45.572;38.086;2023-01-05T17:10:35;7.72;83.74
67364;HTU21D;54250;45.572;38.086;2023-01-05T17:13:18;7.83;83.41
67364;HTU21D;54250;45.572;38.086;2023-01-05T17:15:57;7.89;83.29
67364;HTU21D;54250;45.572;38.086;2023-01-05T17:18:25;7.97;83.16
67364;HTU21D;54250;45.572;38.086;2023-01-05T17:20:53;8.00;83.11
67364;HTU21D;54250;45.572;38.086;2023-01-05T17:23:23;8.02;83.07
67364;HTU21D;54250;45.572;38.086;2023-01-05T17:25:51;8.06;83.04
67364;HTU21D;54250;45.572;38.086;2023-01-05T17:28:18;8.07;83.01
67364;HTU21D;54250;45.572;38.086;2023-01-05T17:30:47;8.08;83.02
67364;HTU21D;54250;45.572;38.086;2023-01-05T17:33:13;8.09;83.05
67364;HTU21D;54250;45.572;38.086;2023-01-05T17:35:40;8.12;83.08
67364;HTU21D;54250;45.572;38.086;2023-01-05T17:38:10;8.14;83.05
67364;HTU21D;54250;45.572;38.086;2023-01-05T17:40:44;8.17;83.07
67364;HTU21D;54250;45.572;38.086;2023-01-05T17:43:19;8.20;83.13
67364;HTU21D;54250;45.572;38.086;2023-01-05T17:45:49;8.23;83.07
67364;HTU21D;54250;45.572;38.086;2023-01-05T17:48:27;8.23;83.10
67364;HTU21D;54250;45.572;38.086;2023-01-05T17:51:00;8.27;83.09
67364;HTU21D;54250;45.572;38.086;2023-01-05T17:53:31;8.30;83.13
67364;HTU21D;54250;45.572;38.086;2023-01-05T17:55:57;8.32;83.11
67364;HTU21D;54250;45.572;38.086;2023-01-05T17:58:26;8.34;83.14
67364;HTU21D;54250;45.572;38.086;2023-01-05T18:00:54;8.37;83.13
67364;HTU21D;54250;45.572;38.086;2023-01-05T18:03:20;8.41;83.15
67364;HTU21D;54250;45.572;38.086;2023-01-05T18:05:49;8.46;83.08
67364;HTU21D;54250;45.572;38.086;2023-01-05T18:08:17;8.51;83.06
67364;HTU21D;54250;45.572;38.086;2023-01-05T18:10:53;8.56;82.98
67364;HTU21D;54250;45.572;38.086;2023-01-05T18:13:20;8.59;83.00
67364;HTU21D;54250;45.572;38.086;2023-01-05T18:16:03;8.60;82.97
67364;HTU21D;54250;45.572;38.086;2023-01-05T18:18:32;8.62;83.02
67364;HTU21D;54250;45.572;38.086;2023-01-05T18:20:59;8.63;83.04
67364;HTU21D;54250;45.572;38.086;2023-01-05T18:23:26;8.64;83.07
67364;HTU21D;54250;45.572;38.086;2023-01-05T18:25:53;8.66;83.07
67364;HTU21D;54250;45.572;38.086;2023-01-05T18:28:28;8.70;83.04